Time;durP1;ratioP1;P1;durP2;ratioP2;P2;SDS_P1;SDS_P2;PMS_P1;PMS_P2;Temp;Humidity;BMP_temperature;BMP_pressure;BME280_temperature;BME280_humidity;BME280_pressure;Samples;Min_cycle;Max_cycle;Signal;HPM_P1;HPM_P2
2022/05/09 00:01:05;;;;;;;11.73;3.50;;;;;;;-148.88;72.03;77201.34;5033525;28;20024;-76
2022/05/09 00:03:31;;;;;;;16.90;4.43;;;;;;;-148.88;72.72;77215.59;5034409;28;20163;-76
2022/05/09 00:05:56;;;;;;;10.20;3.17;;;;;;;-148.88;73.41;77221.69;5034398;28;20025;-76
2022/05/09 00:08:22;;;;;;;14.25;3.92;;;;;;;-148.88;73.18;77227.78;5036266;28;20036;-76
2022/05/09 00:10:47;;;;;;;10.48;3.40;;;;;;;-148.88;73.22;77217.63;5035594;28;20497;-76
2022/05/09 00:13:12;;;;;;;13.77;3.80;;;;;;;-148.88;72.92;77231.84;5035680;28;20031;-76
2022/05/09 00:15:38;;;;;;;13.65;3.97;;;;;;;-148.88;73.71;77235.91;5035478;28;20021;-76
2022/05/09 00:18:03;;;;;;;11.35;3.72;;;;;;;-148.88;74.35;77252.16;5035507;28;20033;-76
2022/05/09 00:20:28;;;;;;;11.07;3.85;;;;;;;-148.88;75.33;77258.25;5035423;28;20151;-76
2022/05/09 00:22:55;;;;;;;12.20;3.92;;;;;;;-148.88;75.03;77262.31;5035365;28;20025;-76
2022/05/09 00:25:24;;;;;;;11.00;3.63;;;;;;;-148.88;75.33;77262.31;5035385;28;20079;-76
2022/05/09 00:27:49;;;;;;;12.68;4.07;;;;;;;-148.88;75.53;77264.34;5033938;28;20121;-76
2022/05/09 00:30:16;;;;;;;9.70;4.30;;;;;;;-148.88;76.10;77276.53;5035296;28;20473;-76
2022/05/09 00:32:41;;;;;;;16.20;4.40;;;;;;;-148.88;76.79;77290.75;5035437;28;20025;-76
2022/05/09 00:35:09;;;;;;;16.88;4.45;;;;;;;-148.88;77.57;77305.00;5033937;28;20029;-76
2022/05/09 00:37:34;;;;;;;14.98;4.10;;;;;;;-148.88;78.04;77305.00;5035141;28;20025;-76
2022/05/09 00:40:00;;;;;;;11.98;4.18;;;;;;;-148.88;77.92;77302.97;5035404;28;20516;-76
2022/05/09 00:42:25;;;;;;;16.85;4.88;;;;;;;-148.88;78.26;77309.06;5035031;28;20025;-76
2022/05/09 00:44:50;;;;;;;13.07;4.50;;;;;;;-148.88;78.50;77305.00;5035015;28;20021;-76
2022/05/09 00:47:16;;;;;;;14.43;5.07;;;;;;;-148.88;79.09;77321.25;5034803;28;20112;-76
2022/05/09 00:49:50;;;;;;;12.13;4.30;;;;;;;-148.88;79.14;77323.28;5034836;28;20025;-76
2022/05/09 00:52:19;;;;;;;;;;;;;;;-148.88;79.58;77327.34;5035194;28;20075;-76
2022/05/09 00:54:52;;;;;;;15.55;4.90;;;;;;;-148.88;79.86;77337.50;5035028;28;19915;-76
2022/05/09 00:57:23;;;;;;;15.98;4.70;;;;;;;-148.88;80.03;77331.41;5033381;28;20491;-76
2022/05/09 00:59:52;;;;;;;16.00;4.63;;;;;;;-148.88;80.24;77325.31;5035014;28;20033;-76
2022/05/09 01:02:19;;;;;;;15.65;4.78;;;;;;;-148.88;80.28;77329.38;5034526;28;20029;-76
2022/05/09 01:04:50;;;;;;;14.05;4.35;;;;;;;-148.88;80.32;77329.38;5056504;22;20049;-83
2022/05/09 01:07:16;;;;;;;15.13;4.30;;;;;;;-148.88;80.11;77333.44;5035682;28;20029;-83
2022/05/09 01:09:41;;;;;;;9.27;4.20;;;;;;;-148.88;79.90;77329.38;5035688;28;20025;-82
2022/05/09 01:12:10;;;;;;;15.23;4.30;;;;;;;-148.88;80.54;77333.44;5017760;28;20113;-83
2022/05/09 01:14:39;;;;;;;14.27;4.65;;;;;;;-148.88;81.46;77343.59;5017452;28;20021;-83
2022/05/09 01:17:05;;;;;;;11.55;5.18;;;;;;;-148.88;81.80;77355.78;5034863;28;20017;-83
2022/05/09 01:19:43;;;;;;;13.43;4.85;;;;;;;-148.88;81.95;77345.63;5034834;28;20133;-82
2022/05/09 01:22:26;;;;;;;13.82;4.45;;;;;;;-148.88;81.65;77343.59;5035716;28;20021;-83
2022/05/09 01:24:55;;;;;;;13.60;4.75;;;;;;;-148.88;81.67;77339.53;5034731;28;20029;-83
2022/05/09 01:27:20;;;;;;;16.73;4.70;;;;;;;-148.88;81.91;77349.69;5035456;28;20021;-83
2022/05/09 01:29:56;;;;;;;15.15;5.28;;;;;;;-148.88;82.72;77343.59;5017522;28;20052;-83
2022/05/09 01:32:31;;;;;;;18.77;5.15;;;;;;;-148.88;82.88;77343.59;5035570;28;20021;-84
2022/05/09 01:35:02;;;;;;;13.10;5.00;;;;;;;-148.88;81.85;77331.41;5035848;28;20025;-83
2022/05/09 01:37:30;;;;;;;13.50;4.60;;;;;;;-148.88;81.26;77327.34;5035808;28;20021;-83
2022/05/09 01:39:55;;;;;;;12.00;4.43;;;;;;;-148.88;82.06;77325.31;5035829;28;20474;-84
2022/05/09 01:42:21;;;;;;;12.50;4.95;;;;;;;-148.88;80.96;77321.25;5034315;28;20025;-83
2022/05/09 01:44:46;;;;;;;15.13;4.40;;;;;;;-148.88;80.98;77329.38;5034443;28;20496;-83
2022/05/09 01:49:55;;;;;;;10.57;4.88;;;;;;;-148.88;80.76;77323.28;5034344;28;20159;-83
2022/05/09 01:52:21;;;;;;;14.07;4.68;;;;;;;-148.88;81.07;77321.25;5034749;28;20130;-84
2022/05/09 01:54:47;;;;;;;15.80;4.88;;;;;;;-148.88;80.65;77331.41;5016772;28;20021;-84
2022/05/09 01:57:12;;;;;;;15.95;5.22;;;;;;;-148.88;80.89;77339.53;5034213;28;20514;-84
2022/05/09 01:59:39;;;;;;;14.25;5.13;;;;;;;-148.88;82.47;77349.69;5033893;28;20032;-83
2022/05/09 02:02:14;;;;;;;16.95;5.53;;;;;;;-148.88;82.57;77353.75;5016696;28;20025;-83
2022/05/09 02:04:40;;;;;;;13.40;5.03;;;;;;;-148.88;82.59;77361.88;5033991;28;20064;-83
2022/05/09 02:07:11;;;;;;;17.05;5.80;;;;;;;-148.88;83.55;77376.13;5034184;28;20025;-83
2022/05/09 02:09:41;;;;;;;13.73;5.30;;;;;;;-148.88;84.41;77380.19;5016429;28;20017;-83
2022/05/09 02:12:07;;;;;;;11.90;5.50;;;;;;;-148.88;85.42;77398.47;5034356;28;20477;-83
2022/05/09 02:14:33;;;;;;;18.55;5.50;;;;;;;-148.88;85.88;77406.59;5034154;28;20160;-83
2022/05/09 02:16:58;;;;;;;16.73;5.15;;;;;;;-148.88;86.25;77406.59;5034683;28;20423;-83
2022/05/09 02:19:24;;;;;;;13.77;5.30;;;;;;;-148.88;86.44;77412.69;5034627;28;20030;-83
2022/05/09 02:21:50;;;;;;;18.15;5.95;;;;;;;-148.88;86.18;77402.53;5034966;28;20022;-83
2022/05/09 02:24:16;;;;;;;19.67;5.88;;;;;;;-148.88;86.31;77412.69;5033745;28;20021;-82
2022/05/09 02:26:41;;;;;;;17.60;6.72;;;;;;;-148.88;86.57;77416.75;5033958;28;20427;-84
2022/05/09 02:29:06;;;;;;;15.93;5.97;;;;;;;-148.88;87.08;77422.84;5034693;28;20421;-84
2022/05/09 02:31:32;;;;;;;18.25;5.57;;;;;;;-148.88;87.63;77441.13;5016179;28;20026;-83
2022/05/09 02:33:58;;;;;;;15.25;5.95;;;;;;;-148.88;87.70;77435.03;5015885;28;20021;-83
2022/05/09 02:36:23;;;;;;;14.38;5.63;;;;;;;-148.88;87.95;77435.03;5034672;28;20029;-84
2022/05/09 02:38:48;;;;;;;14.18;6.18;;;;;;;-148.88;87.65;77437.06;5034451;28;20121;-83
2022/05/09 02:41:14;;;;;;;16.45;6.00;;;;;;;-148.88;88.16;77435.03;5034456;28;20028;-83
2022/05/09 02:43:39;;;;;;;18.50;5.90;;;;;;;-148.88;88.00;77441.13;5033898;28;20052;-84
2022/05/09 02:46:05;;;;;;;14.95;6.10;;;;;;;-148.88;88.44;77445.19;5034442;28;20036;-83
2022/05/09 02:48:35;;;;;;;14.38;6.35;;;;;;;-148.88;88.58;77443.16;5034571;28;20025;-81
2022/05/09 02:51:01;;;;;;;14.63;6.32;;;;;;;-148.88;88.87;77439.09;5015888;28;20112;-81
2022/05/09 02:53:26;;;;;;;13.25;6.32;;;;;;;-148.88;88.68;77451.28;5033512;28;20085;-82
2022/05/09 02:55:52;;;;;;;20.15;6.47;;;;;;;-148.88;89.02;77451.28;5033433;28;20053;-82
2022/05/09 02:58:17;;;;;;;16.83;5.85;;;;;;;-148.88;88.80;77453.31;5033894;28;20132;-82
2022/05/09 03:00:43;;;;;;;16.70;6.20;;;;;;;-148.88;89.80;77453.31;5016464;28;20025;-82
2022/05/09 03:05:52;;;;;;;17.00;6.57;;;;;;;-148.88;89.44;77451.28;5034551;28;20040;-80
2022/05/09 03:08:18;;;;;;;16.63;6.30;;;;;;;-148.88;89.15;77459.44;5033767;28;20425;-83
2022/05/09 03:10:44;;;;;;;18.25;6.75;;;;;;;-148.88;89.43;77455.38;5034194;28;20065;-83
2022/05/09 03:13:12;;;;;;;16.10;6.07;;;;;;;-148.88;89.73;77445.19;5034630;28;20049;-82
2022/05/09 03:15:41;;;;;;;13.65;5.80;;;;;;;-148.88;89.41;77439.09;5034002;28;20437;-82
2022/05/09 03:18:08;;;;;;;13.15;6.30;;;;;;;-148.88;88.51;77441.13;5011015;28;20096;-82
2022/05/09 03:20:38;;;;;;;15.73;6.00;;;;;;;-148.88;88.88;77435.03;5014418;28;20025;-82
2022/05/09 03:23:05;;;;;;;16.40;6.78;;;;;;;-148.88;88.54;77439.09;5016236;28;20397;-83
2022/05/09 03:25:31;;;;;;;20.00;6.60;;;;;;;-148.88;88.27;77435.03;5016397;28;20109;-81
2022/05/09 03:27:57;;;;;;;18.65;6.45;;;;;;;-148.88;87.87;77439.09;5016899;28;20091;-82
2022/05/09 03:30:24;;;;;;;12.70;6.18;;;;;;;-148.88;88.77;77437.06;5035445;28;20430;-82
2022/05/09 03:32:50;;;;;;;16.00;6.15;;;;;;;-148.88;88.27;77435.03;5017256;28;20017;-82
2022/05/09 03:35:15;;;;;;;14.25;5.40;;;;;;;-148.88;88.02;77439.09;5036207;28;20025;-82
2022/05/09 03:37:41;;;;;;;17.10;6.45;;;;;;;-148.88;87.62;77439.09;5020629;28;20029;-81
2022/05/09 03:40:07;;;;;;;17.63;6.50;;;;;;;-148.88;88.08;77430.97;5038273;28;20475;-82
2022/05/09 03:42:32;;;;;;;14.15;6.30;;;;;;;-148.88;87.82;77430.97;5038049;28;20022;-82
2022/05/09 03:44:57;;;;;;;17.77;5.82;;;;;;;-148.88;87.56;77430.97;5019622;28;20021;-82
2022/05/09 03:47:23;;;;;;;14.95;5.80;;;;;;;-148.88;87.73;77426.91;5036957;28;20060;-82
2022/05/09 03:49:50;;;;;;;13.95;6.18;;;;;;;-148.88;87.62;77420.81;5036971;28;20033;-82
2022/05/09 03:52:16;;;;;;;16.67;6.55;;;;;;;-148.88;87.65;77416.75;5017826;28;20029;-82
2022/05/09 03:54:41;;;;;;;18.33;6.70;;;;;;;-148.88;87.31;77416.75;5018763;28;20039;-81
2022/05/09 03:57:06;;;;;;;16.85;6.38;;;;;;;-148.88;87.73;77430.97;5037150;28;20024;-82
2022/05/09 03:59:32;;;;;;;21.77;7.20;;;;;;;-148.88;88.58;77447.22;5036547;28;20022;-82
2022/05/09 04:01:58;;;;;;;16.38;6.60;;;;;;;-148.88;89.46;77465.53;5037055;28;20029;-82
2022/05/09 04:04:23;;;;;;;19.40;6.57;;;;;;;-148.88;89.68;77451.28;5037272;28;20166;-83
2022/05/09 04:06:51;;;;;;;17.33;6.65;;;;;;;-148.88;89.57;77447.22;5042113;28;20048;-83
2022/05/09 04:09:17;;;;;;;13.82;6.45;;;;;;;-148.88;89.28;77443.16;5023816;28;20021;-83
2022/05/09 04:11:42;;;;;;;18.27;7.05;;;;;;;-148.88;89.22;77435.03;5040839;28;20379;-83
2022/05/09 04:14:07;;;;;;;16.20;6.68;;;;;;;-148.88;89.29;77435.03;5024601;28;20036;-83
2022/05/09 04:16:51;;;;;;;13.15;6.43;;;;;;;-148.88;88.66;77428.94;5044165;28;20041;-83
2022/05/09 04:19:17;;;;;;;16.58;6.68;;;;;;;-148.88;89.17;77426.91;5043660;28;20040;-84
2022/05/09 04:21:42;;;;;;;14.35;6.00;;;;;;;-148.88;88.97;77424.88;5025061;28;20036;-84
2022/05/09 04:24:10;;;;;;;14.80;6.65;;;;;;;-148.88;88.65;77418.78;5040829;28;20025;-85
2022/05/09 04:26:37;;;;;;;15.60;6.47;;;;;;;-148.88;88.77;77418.78;5039998;28;20037;-84
2022/05/09 04:29:02;;;;;;;15.57;6.53;;;;;;;-148.88;89.23;77422.84;5023613;28;20025;-84
2022/05/09 04:31:30;;;;;;;12.18;5.60;;;;;;;-148.88;89.19;77418.78;5041178;28;20100;-85
2022/05/09 04:33:58;;;;;;;13.55;6.72;;;;;;;-148.88;89.09;77418.78;5020039;28;20029;-85
2022/05/09 04:36:26;;;;;;;16.95;6.03;;;;;;;-148.88;89.08;77416.75;5038176;28;20056;-85
2022/05/09 04:38:52;;;;;;;14.68;6.55;;;;;;;-148.88;89.97;77414.72;5018502;28;20025;-85
2022/05/09 04:41:19;;;;;;;17.50;6.13;;;;;;;-148.88;90.27;77408.63;5020141;28;20044;-85
2022/05/09 04:43:45;;;;;;;18.48;6.40;;;;;;;-148.88;90.53;77406.59;5037516;28;20478;-83
2022/05/09 04:46:11;;;;;;;13.38;5.97;;;;;;;-148.88;90.23;77398.47;5017303;28;20032;-85
2022/05/09 04:48:38;;;;;;;13.43;6.53;;;;;;;-148.88;90.34;77400.50;5017919;28;20029;-85
2022/05/09 04:51:03;;;;;;;17.80;6.88;;;;;;;-148.88;90.62;77398.47;5035270;28;20029;-85
2022/05/09 04:53:29;;;;;;;17.05;6.90;;;;;;;-148.88;90.81;77394.41;5035318;28;20030;-85
2022/05/09 04:55:56;;;;;;;18.38;7.32;;;;;;;-148.88;91.00;77384.25;5035179;28;20028;-86
2022/05/09 04:58:21;;;;;;;16.80;7.35;;;;;;;-148.88;90.83;77386.28;5036631;28;20029;-85
2022/05/09 05:00:48;;;;;;;18.90;7.18;;;;;;;-148.88;91.55;77372.03;5035077;28;20028;-87
2022/05/09 05:03:13;;;;;;;14.43;6.88;;;;;;;-148.88;90.59;77370.00;5035665;28;20112;-87
2022/05/09 05:05:39;;;;;;;18.10;6.93;;;;;;;-148.88;90.90;77361.88;5018318;28;20060;-86
2022/05/09 05:08:08;;;;;;;14.02;6.38;;;;;;;-148.88;91.00;77351.72;5035325;28;20048;-86
2022/05/09 05:10:34;;;;;;;14.07;6.50;;;;;;;-148.88;91.08;77341.56;5035414;28;20479;-86
2022/05/09 05:13:02;;;;;;;18.08;6.47;;;;;;;-148.88;90.90;77337.50;5036013;28;20040;-87
2022/05/09 05:15:28;;;;;;;16.70;6.28;;;;;;;-148.88;90.53;77327.34;5017839;28;20478;-88
2022/05/09 05:17:53;;;;;;;20.08;7.57;;;;;;;-148.88;90.50;77315.16;5035351;28;20037;-87
2022/05/09 05:20:19;;;;;;;15.82;6.55;;;;;;;-148.88;90.48;77305.00;5018438;28;20056;-89
2022/05/09 05:22:50;;;;;;;19.00;6.72;;;;;;;-148.88;90.31;77298.91;5017004;28;20032;-88
2022/05/09 05:25:25;;;;;;;16.30;7.43;;;;;;;-148.88;90.89;77284.66;5035802;28;20021;-88
2022/05/09 05:27:51;;;;;;;16.73;6.88;;;;;;;-148.88;90.76;77276.53;5034725;28;20060;-88
2022/05/09 05:30:17;;;;;;;14.88;6.65;;;;;;;-148.88;90.38;77272.47;5034728;28;20401;-88
2022/05/09 05:32:42;;;;;;;16.88;6.90;;;;;;;-148.88;90.00;77266.38;5034803;28;20078;-88
2022/05/09 05:35:14;;;;;;;16.23;7.07;;;;;;;-148.88;89.70;77252.16;5034449;28;20542;-88
2022/05/09 05:37:39;;;;;;;14.77;6.13;;;;;;;-148.88;88.47;77256.22;5034980;28;20021;-87
2022/05/09 05:40:06;;;;;;;10.85;6.28;;;;;;;-148.88;88.33;77248.09;5034518;28;20059;-88
2022/05/09 05:42:32;;;;;;;18.95;6.88;;;;;;;-148.88;88.86;77239.97;5034348;28;20021;-88
2022/05/09 05:44:57;;;;;;;18.00;7.10;;;;;;;-148.88;88.88;77229.81;5034760;28;20178;-88
2022/05/09 05:47:23;;;;;;;16.27;6.43;;;;;;;-148.88;89.31;77215.59;5034830;28;20036;-88
2022/05/09 05:49:49;;;;;;;17.30;6.50;;;;;;;-148.88;89.36;77203.41;5034963;28;20029;-88
2022/05/09 05:52:15;;;;;;;17.88;6.60;;;;;;;-148.88;88.79;77197.28;5034985;28;20036;-89
2022/05/09 05:54:42;;;;;;;17.50;6.00;;;;;;;-148.88;88.21;77193.22;5034729;28;20025;-88
2022/05/09 05:57:17;;;;;;;24.88;6.70;;;;;;;-148.88;88.34;77179.00;5035889;28;20021;-88
2022/05/09 05:59:51;;;;;;;14.30;6.25;;;;;;;-148.88;88.35;77166.81;5034163;28;20540;-88
2022/05/09 06:02:17;;;;;;;16.48;6.68;;;;;;;-148.88;88.14;77162.75;5034550;28;20108;-89
2022/05/09 06:04:43;;;;;;;13.27;6.90;;;;;;;-148.88;87.70;77138.38;5034882;28;20048;-88
2022/05/09 06:07:08;;;;;;;13.93;6.55;;;;;;;-148.88;87.09;77126.19;5034343;28;20104;-88
2022/05/09 06:09:33;;;;;;;17.75;8.00;;;;;;;-148.88;87.67;77114.00;5034238;28;20156;-88
2022/05/09 06:12:01;;;;;;;17.45;6.95;;;;;;;-148.88;87.75;77105.84;5033849;28;20378;-88
2022/05/09 06:14:26;;;;;;;13.93;6.50;;;;;;;-148.88;87.26;77097.72;5033998;28;20033;-88
2022/05/09 06:16:52;;;;;;;14.98;6.80;;;;;;;-148.88;85.56;77083.50;5033980;28;20429;-89
2022/05/09 06:19:17;;;;;;;16.45;6.88;;;;;;;-148.88;85.39;77077.41;5034032;28;20470;-88
2022/05/09 06:21:42;;;;;;;19.70;6.68;;;;;;;-148.88;84.98;77069.28;5016098;28;20036;-89
2022/05/09 06:24:08;;;;;;;13.50;6.30;;;;;;;-148.88;84.80;77048.97;5033676;28;20025;-89
2022/05/09 06:26:37;;;;;;;19.10;6.38;;;;;;;-148.88;85.02;77044.91;5033938;28;20477;-89
2022/05/09 06:29:06;;;;;;;17.10;7.43;;;;;;;-148.88;84.57;77026.63;5034125;28;20032;-89
2022/05/09 06:31:35;;;;;;;16.52;6.75;;;;;;;-148.88;84.26;77008.34;5034522;28;20029;-89
2022/05/09 06:34:01;;;;;;;15.82;6.68;;;;;;;-148.88;82.66;77000.19;5035712;28;20056;-88
2022/05/09 06:36:26;;;;;;;17.77;6.78;;;;;;;-148.88;82.86;76992.06;5034413;28;20545;-88
2022/05/09 06:38:52;;;;;;;13.73;6.85;;;;;;;-148.88;82.60;76977.84;5033820;28;20064;-88
2022/05/09 06:41:18;;;;;;;15.60;6.80;;;;;;;-148.88;82.56;76969.72;5034033;28;20026;-88
2022/05/09 06:43:44;;;;;;;14.73;6.28;;;;;;;-148.88;80.20;76945.34;5033841;28;20024;-88
2022/05/09 06:46:10;;;;;;;15.40;5.90;;;;;;;-148.88;79.81;76933.16;5033382;28;20025;-88
2022/05/09 06:48:35;;;;;;;16.92;6.43;;;;;;;-148.88;79.40;76918.94;5033356;28;20061;-89
2022/05/09 06:51:00;;;;;;;13.07;5.97;;;;;;;-148.88;79.42;76912.84;5016076;28;20057;-89
2022/05/09 06:53:26;;;;;;;13.70;6.28;;;;;;;-148.88;79.49;76898.63;5033138;28;20029;-89
2022/05/09 06:55:51;;;;;;;13.40;6.68;;;;;;;-148.88;77.98;76884.38;5033340;28;20028;-89
2022/05/09 06:58:22;;;;;;;15.07;5.95;;;;;;;-148.88;76.31;76868.13;5033373;28;20064;-88
2022/05/09 07:00:48;;;;;;;13.80;5.30;;;;;;;-148.88;76.92;76851.88;5033411;28;20108;-88
2022/05/09 07:03:14;;;;;;;12.07;5.95;;;;;;;-148.88;75.55;76827.50;5055658;22;20102;-84
2022/05/09 07:05:43;;;;;;;14.77;6.10;;;;;;;-148.88;74.98;76817.34;5015936;28;20034;-84
2022/05/09 07:08:09;;;;;;;12.10;5.57;;;;;;;-148.88;73.24;76807.19;5016584;28;20022;-86
2022/05/09 07:10:35;;;;;;;13.18;5.72;;;;;;;-148.88;71.45;76797.03;5017455;28;20064;-85
2022/05/09 07:13:01;;;;;;;14.15;5.85;;;;;;;-148.88;71.00;76770.63;5035881;28;20041;-83
2022/05/09 07:15:29;;;;;;;11.35;5.85;;;;;;;-148.88;69.82;76752.31;5019606;28;20030;-85
2022/05/09 07:17:56;;;;;;;10.30;5.13;;;;;;;-148.88;69.98;76738.09;5018940;28;20040;-85
2022/05/09 07:20:25;;;;;;;9.23;4.22;;;;;;;-148.88;68.68;76723.88;5018727;28;20033;-85
2022/05/09 07:22:53;;;;;;;16.55;4.30;;;;;;;-148.88;67.07;76703.56;5018447;28;20026;-85
2022/05/09 07:25:19;;;;;;;10.85;3.85;;;;;;;-148.88;67.16;76687.31;5017881;28;20538;-84
2022/05/09 07:27:45;;;;;;;7.32;3.95;;;;;;;-148.88;65.46;76667.00;5019198;28;20025;-83
2022/05/09 07:30:19;;;;;;;7.80;3.50;;;;;;;-148.88;65.10;76632.47;5017799;28;20313;-85
2022/05/09 07:32:45;;;;;;;;;;;;;;;-148.88;61.49;76612.13;5017434;28;20030;-83
2022/05/09 07:35:13;;;;;;;8.73;3.40;;;;;;;-148.88;60.48;76591.81;5018501;28;20283;-84
2022/05/09 07:37:40;;;;;;;8.10;3.60;;;;;;;-148.88;59.71;76567.44;5016844;28;20040;-82
2022/05/09 07:40:07;;;;;;;7.72;3.40;;;;;;;-148.88;59.41;76553.22;5016953;28;20021;-83
2022/05/09 07:42:34;;;;;;;10.75;3.20;;;;;;;-148.88;59.30;76541.03;5016686;28;20018;-83
2022/05/09 07:45:00;;;;;;;10.02;3.40;;;;;;;-148.88;58.26;76520.72;5016582;28;20026;-83
2022/05/09 07:47:25;;;;;;;11.38;3.30;;;;;;;-148.88;56.03;76502.44;5017279;28;20479;-84
2022/05/09 07:49:51;;;;;;;5.75;2.90;;;;;;;-148.88;57.11;76488.22;5016644;28;20030;-83
2022/05/09 07:52:16;;;;;;;10.75;3.28;;;;;;;-148.88;54.98;76463.84;5016635;28;20029;-84
2022/05/09 07:54:43;;;;;;;8.07;3.10;;;;;;;-148.88;55.55;76447.59;5016236;28;20017;-84
2022/05/09 07:57:08;;;;;;;10.18;3.13;;;;;;;-148.88;55.36;76435.41;5017271;28;20032;-85
2022/05/09 07:59:34;;;;;;;5.72;3.00;;;;;;;-148.88;54.55;76429.31;5015572;28;20041;-84
2022/05/09 08:02:00;;;;;;;10.23;3.30;;;;;;;-148.88;53.55;76411.00;5017526;28;20053;-85
2022/05/09 08:04:25;;;;;;;6.25;2.80;;;;;;;-148.88;55.05;76394.75;5015686;28;20403;-84
2022/05/09 08:06:50;;;;;;;10.00;2.80;;;;;;;-148.88;54.75;76382.56;5016027;28;20034;-83
2022/05/09 08:09:16;;;;;;;7.85;2.95;;;;;;;-148.88;52.76;76356.16;5015251;28;20057;-85
2022/05/09 08:11:41;;;;;;;9.52;2.90;;;;;;;-148.88;54.22;76329.75;5015971;28;20060;-85
2022/05/09 08:14:08;;;;;;;5.75;2.50;;;;;;;-148.88;54.04;76313.50;5014712;28;20026;-84
2022/05/09 08:16:34;;;;;;;7.53;2.70;;;;;;;-148.88;53.89;76295.22;5014647;28;20422;-84
2022/05/09 08:19:01;;;;;;;10.07;2.95;;;;;;;-148.88;52.36;76262.72;5015572;28;20521;-83
2022/05/09 08:21:26;;;;;;;9.15;3.00;;;;;;;-148.88;52.16;76248.50;5014349;28;20022;-84
2022/05/09 08:23:52;;;;;;;7.43;2.75;;;;;;;-148.88;50.89;76234.28;5015389;28;20053;-84
2022/05/09 08:26:23;;;;;;;6.00;2.40;;;;;;;-148.88;51.63;76228.19;5016139;28;20026;-85
2022/05/09 08:28:50;;;;;;;7.57;2.97;;;;;;;-148.88;49.73;76207.88;5015918;28;20034;-83
2022/05/09 08:31:18;;;;;;;5.90;2.50;;;;;;;-148.88;50.27;76205.84;5015099;28;20022;-84
2022/05/09 08:33:45;;;;;;;6.38;2.45;;;;;;;-148.88;48.85;76177.41;5014659;28;20048;-84
2022/05/09 08:36:10;;;;;;;9.35;2.58;;;;;;;-148.88;50.36;76148.97;5014980;28;20519;-84
2022/05/09 08:38:36;;;;;;;9.38;2.40;;;;;;;-148.88;49.42;76153.03;5014912;28;20034;-83
2022/05/09 08:41:13;;;;;;;5.90;2.40;;;;;;;-148.88;48.78;76136.78;5016176;28;20104;-84
2022/05/09 08:43:45;;;;;;;6.80;2.30;;;;;;;-148.88;48.34;76114.41;5014637;28;20109;-81
2022/05/09 08:46:19;;;;;;;5.78;2.20;;;;;;;-148.88;48.73;76102.22;5014895;28;20036;-84
2022/05/09 08:48:55;;;;;;;5.47;1.90;;;;;;;-148.88;48.50;76073.78;5014796;28;20037;-85
2022/05/09 08:51:29;;;;;;;9.05;2.00;;;;;;;-148.88;46.94;76035.19;5014336;28;20500;-84
2022/05/09 08:54:02;;;;;;;5.97;1.90;;;;;;;-148.88;45.46;76037.22;5014227;28;20033;-83
2022/05/09 08:56:27;;;;;;;6.18;1.92;;;;;;;-148.88;47.63;76000.66;5013943;28;20021;-84
2022/05/09 08:59:03;;;;;;;8.55;2.28;;;;;;;-148.88;46.78;75980.34;5014122;28;20034;-84
2022/05/09 09:01:35;;;;;;;6.72;2.20;;;;;;;-148.88;44.00;75953.94;5015178;28;20032;-84
2022/05/09 09:04:05;;;;;;;7.63;2.30;;;;;;;-148.88;44.95;75923.47;5013777;28;20042;-83
2022/05/09 09:07:04;;;;;;;7.65;2.28;;;;;;;-148.88;44.45;75915.34;5015602;28;20018;-83
2022/05/09 09:10:02;;;;;;;6.22;2.28;;;;;;;-148.88;42.84;75878.78;5014845;28;20022;-83
2022/05/09 09:12:49;;;;;;;5.90;2.08;;;;;;;-148.88;42.58;75862.53;5014382;28;20034;-83
2022/05/09 09:15:25;;;;;;;5.60;1.83;;;;;;;-148.88;44.94;75838.16;5013710;28;20030;-83
2022/05/09 09:18:06;;;;;;;10.32;2.25;;;;;;;-148.88;42.79;75813.78;5013705;28;20496;-84
2022/05/09 09:20:55;;;;;;;6.47;2.15;;;;;;;-148.88;41.90;75793.47;5015283;28;20022;-83
2022/05/09 09:23:53;;;;;;;5.35;2.00;;;;;;;-148.88;41.64;75769.09;5013457;28;20029;-83
2022/05/09 09:26:57;;;;;;;9.82;2.50;;;;;;;-148.88;41.34;75738.63;5013464;28;20025;-83
2022/05/09 09:29:45;;;;;;;4.93;1.92;;;;;;;-148.88;40.68;75714.25;5013261;28;20057;-83
2022/05/09 09:32:14;;;;;;;6.22;2.10;;;;;;;-148.88;41.56;75689.88;5013303;28;20366;-84
2022/05/09 09:34:52;;;;;;;4.93;2.30;;;;;;;-148.88;40.23;75655.34;5012835;28;20028;-83
2022/05/09 09:37:39;;;;;;;7.70;2.25;;;;;;;-148.88;40.09;75635.03;5015137;28;20052;-84
2022/05/09 09:40:06;;;;;;;5.72;2.20;;;;;;;-148.88;38.71;75626.91;5015154;28;20025;-83
2022/05/09 09:42:32;;;;;;;6.43;2.20;;;;;;;-148.88;39.22;75614.72;5014754;28;20026;-83
2022/05/09 09:45:03;;;;;;;5.00;1.85;;;;;;;-148.88;39.51;75578.19;5013315;28;20372;-84
2022/05/09 09:47:29;;;;;;;8.95;2.67;;;;;;;-148.88;38.71;75555.84;5013341;28;20112;-83
2022/05/09 09:50:13;;;;;;;5.10;2.53;;;;;;;-148.88;38.32;75566.00;5012957;28;20044;-84
2022/05/09 09:52:48;;;;;;;6.40;2.60;;;;;;;-148.88;38.19;75537.56;5013416;28;20033;-84
2022/05/09 09:55:36;;;;;;;8.02;2.70;;;;;;;-148.88;40.83;75488.81;5012589;28;20132;-83
2022/05/09 09:58:22;;;;;;;8.88;2.55;;;;;;;-148.88;38.53;75464.44;5012825;28;20025;-84
2022/05/09 10:01:03;;;;;;;6.57;1.98;;;;;;;-148.88;38.73;75446.16;5012535;28;20025;-84
2022/05/09 10:03:30;;;;;;;6.32;1.95;;;;;;;-148.88;38.66;75419.75;5014515;28;20041;-85
2022/05/09 10:05:56;;;;;;;6.78;2.10;;;;;;;-148.88;38.83;75401.47;5012482;28;20050;-85
2022/05/09 10:08:32;;;;;;;6.57;2.65;;;;;;;-148.88;39.38;75395.38;5012823;28;20057;-83
2022/05/09 10:11:03;;;;;;;7.25;2.20;;;;;;;-148.88;38.06;75358.81;5012309;28;20029;-84
2022/05/09 10:13:55;;;;;;;9.43;2.60;;;;;;;-148.88;37.99;75358.81;5011971;28;20037;-83
2022/05/09 10:16:33;;;;;;;5.75;2.10;;;;;;;-148.88;37.83;75344.59;5012310;28;20030;-83
2022/05/09 10:19:01;;;;;;;6.22;2.15;;;;;;;-148.88;36.87;75322.25;5012933;28;20029;-84
2022/05/09 10:27:20;;;;;;;5.43;2.53;;;;;;;-148.88;37.68;75314.13;5013966;28;20087;-84
2022/05/09 10:29:48;;;;;;;6.35;2.58;;;;;;;-148.88;38.30;75297.88;5013321;28;20057;-83
2022/05/09 10:32:20;;;;;;;5.97;2.10;;;;;;;-148.88;38.53;75261.34;5013095;28;20376;-83
2022/05/09 10:35:12;;;;;;;7.80;3.00;;;;;;;-148.88;38.01;75253.22;5013968;28;20033;-83
2022/05/09 10:37:58;;;;;;;6.53;2.30;;;;;;;-148.88;38.62;75208.53;5013794;28;20026;-84
2022/05/09 10:40:33;;;;;;;7.18;2.30;;;;;;;-148.88;37.03;75206.50;5023930;28;20026;-85
2022/05/09 10:43:25;;;;;;;6.10;2.30;;;;;;;-148.88;36.74;75214.63;5016330;28;20324;-83
2022/05/09 10:45:52;;;;;;;7.68;2.40;;;;;;;-148.88;38.81;75226.81;5011491;28;20026;-83
2022/05/09 10:48:21;;;;;;;5.90;2.20;;;;;;;-148.88;37.47;75200.41;5013081;28;20030;-83
2022/05/09 10:51:00;;;;;;;5.10;1.98;;;;;;;-148.88;36.33;75155.72;5012195;28;20025;-84
2022/05/09 10:54:01;;;;;;;6.97;2.60;;;;;;;-148.88;36.75;75161.81;5013030;28;20519;-84
2022/05/09 10:56:39;;;;;;;5.47;2.22;;;;;;;-148.88;38.73;75111.03;5013666;28;20472;-84
2022/05/09 10:59:09;;;;;;;7.53;2.08;;;;;;;-148.88;36.98;75111.03;5014069;28;20123;-85
2022/05/09 11:01:41;;;;;;;5.75;2.20;;;;;;;-148.88;35.87;75129.31;5013346;28;20064;-83
2022/05/09 11:04:07;;;;;;;4.70;1.98;;;;;;;-148.88;36.28;75176.03;5011576;28;20034;-84
2022/05/09 11:06:51;;;;;;;5.95;2.30;;;;;;;-148.88;38.34;75121.19;5014315;28;20033;-84
2022/05/09 11:09:32;;;;;;;;;;;;;;;-148.88;37.19;75117.13;5012941;28;20057;-85
2022/05/09 11:12:07;;;;;;;7.00;2.10;;;;;;;-148.88;35.46;75127.28;5012138;28;20386;-86
2022/05/09 11:14:38;;;;;;;5.38;2.40;;;;;;;-148.88;36.85;75115.09;5012634;28;20436;-84
2022/05/09 11:17:13;;;;;;;5.10;2.00;;;;;;;-148.88;35.41;75115.09;5014254;28;20345;-86
2022/05/09 11:19:44;;;;;;;9.07;2.58;;;;;;;-148.88;35.18;75102.91;5014391;28;20025;-88
2022/05/09 11:22:26;;;;;;;7.85;2.28;;;;;;;-148.88;33.80;75046.06;5016105;28;20063;-87
2022/05/09 11:24:51;;;;;;;8.30;2.10;;;;;;;-148.88;35.08;75021.69;5013201;28;20026;-89
2022/05/09 11:27:24;;;;;;;5.35;2.33;;;;;;;-148.88;34.27;75023.72;5014983;28;20141;-89
2022/05/09 11:30:01;;;;;;;5.75;2.13;;;;;;;-148.88;34.64;75029.81;5013379;28;20025;-86
2022/05/09 11:32:43;;;;;;;5.80;2.20;;;;;;;-148.88;35.97;75031.84;5012164;28;20034;-87